Time;durP1;ratioP1;P1;durP2;ratioP2;P2;SDS_P1;SDS_P2;PMS_P1;PMS_P2;Temp;Humidity;BMP_temperature;BMP_pressure;BME280_temperature;BME280_humidity;BME280_pressure;Samples;Min_cycle;Max_cycle;Signal;HPM_P1;HPM_P2
2023/06/03 00:00:43;;;;;;;14.20;6.07;;;;;;;9.20;100.00;102357.94;5092857;28;20025;-75
2023/06/03 00:03:13;;;;;;;10.93;5.00;;;;;;;9.19;100.00;102361.53;5093011;28;20375;-75
2023/06/03 00:05:42;;;;;;;11.15;5.90;;;;;;;9.17;100.00;102364.28;5092990;28;20384;-76
2023/06/03 00:08:07;;;;;;;16.08;7.00;;;;;;;9.20;100.00;102367.72;5092972;28;20028;-75
2023/06/03 00:10:33;;;;;;;9.70;5.50;;;;;;;9.16;100.00;102365.22;5093053;28;20166;-76
2023/06/03 00:12:58;;;;;;;10.52;4.80;;;;;;;9.15;100.00;102360.88;5092555;28;20032;-74
2023/06/03 00:15:24;;;;;;;10.98;5.90;;;;;;;9.18;100.00;102360.69;5074637;28;20040;-75
2023/06/03 00:17:49;;;;;;;12.40;6.10;;;;;;;9.27;100.00;102361.06;5093000;28;20035;-75
2023/06/03 00:20:14;;;;;;;13.13;5.90;;;;;;;9.29;100.00;102364.50;5092836;28;20426;-73
2023/06/03 00:22:40;;;;;;;8.85;5.63;;;;;;;9.31;100.00;102360.78;5092658;28;20032;-74
2023/06/03 00:25:07;;;;;;;13.10;6.25;;;;;;;9.30;100.00;102358.22;5093272;28;20036;-74
2023/06/03 00:27:36;;;;;;;12.65;6.20;;;;;;;9.31;100.00;102367.91;5092959;28;20032;-75
2023/06/03 00:30:03;;;;;;;12.52;6.30;;;;;;;9.33;100.00;102366.88;5092703;28;20032;-74
2023/06/03 00:32:28;;;;;;;10.43;5.07;;;;;;;9.32;100.00;102369.63;5093210;28;20388;-74
2023/06/03 00:34:53;;;;;;;9.40;5.40;;;;;;;9.28;100.00;102357.47;5096355;28;20085;-75
2023/06/03 00:37:19;;;;;;;10.13;5.40;;;;;;;9.27;100.00;102361.06;5096947;28;20035;-74
2023/06/03 00:39:44;;;;;;;11.32;5.40;;;;;;;9.24;100.00;102353.28;5096185;28;20047;-74
2023/06/03 00:42:09;;;;;;;13.52;5.55;;;;;;;9.20;100.00;102352.63;5096063;28;20028;-74
2023/06/03 00:44:35;;;;;;;11.20;4.93;;;;;;;9.18;100.00;102360.69;5095821;28;20043;-74
2023/06/03 00:47:01;;;;;;;8.95;5.90;;;;;;;9.17;100.00;102356.31;5096143;28;20081;-74
2023/06/03 00:49:27;;;;;;;12.82;6.45;;;;;;;9.16;100.00;102353.75;5077975;28;20043;-74
2023/06/03 00:51:53;;;;;;;11.73;6.00;;;;;;;9.15;100.00;102355.56;5096373;28;20036;-75
2023/06/03 00:54:19;;;;;;;12.35;6.03;;;;;;;9.11;100.00;102356.69;5095719;28;20052;-74
2023/06/03 00:56:45;;;;;;;10.50;5.38;;;;;;;9.07;100.00;102354.31;5077845;28;20028;-75
2023/06/03 00:59:16;;;;;;;8.82;5.38;;;;;;;9.03;100.00;102356.28;5096083;28;20166;-74
2023/06/03 01:01:42;;;;;;;12.93;6.53;;;;;;;9.00;100.00;102354.69;5096199;28;20063;-75
2023/06/03 01:04:12;;;;;;;8.32;5.45;;;;;;;8.97;100.00;102354.00;5095824;28;20038;-74
2023/06/03 01:06:47;;;;;;;8.57;5.53;;;;;;;8.94;100.00;102354.19;5077519;28;20104;-75
2023/06/03 01:09:46;;;;;;;13.02;6.07;;;;;;;8.90;100.00;102361.50;5096012;28;20483;-75
2023/06/03 01:12:37;;;;;;;9.75;4.93;;;;;;;8.82;100.00;102356.66;5095739;28;20169;-74
2023/06/03 01:15:12;;;;;;;11.40;4.85;;;;;;;8.76;100.00;102351.69;5095742;28;20073;-74
2023/06/03 01:17:45;;;;;;;12.23;5.45;;;;;;;8.71;100.00;102352.91;5078162;28;20376;-73
2023/06/03 01:20:12;;;;;;;8.15;5.40;;;;;;;8.66;100.00;102361.13;5095774;28;20027;-74
2023/06/03 01:22:40;;;;;;;12.93;5.43;;;;;;;8.65;100.00;102354.97;5095289;28;20032;-75
2023/06/03 01:25:08;;;;;;;10.77;5.95;;;;;;;8.62;100.00;102357.78;5095918;28;20118;-75
2023/06/03 01:27:37;;;;;;;6.22;4.35;;;;;;;8.57;100.00;102359.00;5095153;28;20107;-74
2023/06/03 01:30:09;;;;;;;15.68;6.40;;;;;;;8.54;100.00;102364.47;5078051;28;20440;-75
2023/06/03 01:32:37;;;;;;;9.85;5.60;;;;;;;8.53;100.00;102365.44;5095595;28;20039;-75
2023/06/03 01:35:04;;;;;;;11.50;6.03;;;;;;;8.54;100.00;102364.47;5095157;28;20467;-75
2023/06/03 01:37:30;;;;;;;14.45;6.20;;;;;;;8.54;100.00;102364.47;5095219;28;20031;-75
2023/06/03 01:39:56;;;;;;;16.00;6.78;;;;;;;8.53;100.00;102365.44;5095448;28;20084;-75
2023/06/03 01:42:21;;;;;;;13.10;6.47;;;;;;;8.54;100.00;102361.84;5095454;28;20067;-75
2023/06/03 01:44:47;;;;;;;15.65;6.45;;;;;;;8.54;100.00;102361.84;5093768;28;20060;-75
2023/06/03 01:47:13;;;;;;;11.98;6.25;;;;;;;8.52;100.00;102356.63;5095013;28;20040;-75
2023/06/03 01:49:38;;;;;;;12.75;5.90;;;;;;;8.54;100.00;102373.31;5095089;28;20157;-75
2023/06/03 01:52:04;;;;;;;14.32;6.00;;;;;;;8.57;100.00;102365.19;5094836;28;20062;-75
2023/06/03 01:54:30;;;;;;;12.63;5.28;;;;;;;8.56;100.00;102365.28;5094483;28;20052;-74
2023/06/03 01:56:56;;;;;;;11.18;5.65;;;;;;;8.53;100.00;102368.09;5094790;28;20402;-75
2023/06/03 01:59:23;;;;;;;7.95;5.20;;;;;;;8.50;100.00;102365.63;5094856;28;20512;-74
2023/06/03 02:01:56;;;;;;;9.98;5.63;;;;;;;8.46;100.00;102368.47;5094727;28;20028;-75
2023/06/03 02:04:22;;;;;;;15.00;5.78;;;;;;;8.42;100.00;102372.19;5094546;28;20028;-75
2023/06/03 02:06:50;;;;;;;13.20;5.55;;;;;;;8.38;100.00;102372.44;5094215;28;20498;-75
2023/06/03 02:09:15;;;;;;;13.35;5.68;;;;;;;8.37;100.00;102370.72;5094653;28;20063;-74
2023/06/03 02:11:44;;;;;;;10.43;5.40;;;;;;;8.34;100.00;102363.78;5094527;28;20055;-73
2023/06/03 02:14:11;;;;;;;11.75;5.93;;;;;;;8.32;100.00;102363.03;5094444;28;20040;-74
2023/06/03 02:16:37;;;;;;;10.82;6.22;;;;;;;8.33;100.00;102362.09;5094431;28;20089;-75
2023/06/03 02:19:10;;;;;;;13.80;5.97;;;;;;;8.33;100.00;102355.94;5094330;28;20098;-74
2023/06/03 02:21:36;;;;;;;7.88;5.47;;;;;;;8.35;100.00;102354.06;5095157;28;20097;-74
2023/06/03 02:24:02;;;;;;;9.63;5.55;;;;;;;8.34;100.00;102352.34;5094030;28;20044;-75
2023/06/03 02:26:28;;;;;;;20.02;6.15;;;;;;;8.34;100.00;102353.19;5094303;28;20110;-75
2023/06/03 02:28:54;;;;;;;19.17;6.00;;;;;;;8.43;100.00;102349.16;5094087;28;20090;-75
2023/06/03 02:31:19;;;;;;;9.00;5.75;;;;;;;8.45;100.00;102340.22;5076591;28;20032;-74
2023/06/03 02:33:45;;;;;;;11.50;6.78;;;;;;;8.47;100.00;102351.56;5094101;28;20089;-80
2023/06/03 02:36:11;;;;;;;10.93;5.32;;;;;;;8.44;100.00;102346.44;5075609;28;20055;-75
2023/06/03 02:38:37;;;;;;;14.23;6.03;;;;;;;8.42;100.00;102344.78;5094288;28;20070;-75
2023/06/03 02:41:02;;;;;;;9.52;5.50;;;;;;;8.38;100.00;102345.94;5093869;28;20036;-75
2023/06/03 02:43:27;;;;;;;11.05;5.55;;;;;;;8.34;100.00;102347.88;5093735;28;20028;-74
2023/06/03 02:45:53;;;;;;;14.20;5.75;;;;;;;8.31;100.00;102345.41;5093766;28;20024;-75
2023/06/03 02:48:18;;;;;;;10.25;5.25;;;;;;;8.24;100.00;102354.66;5093837;28;20028;-74
2023/06/03 02:50:44;;;;;;;9.57;4.70;;;;;;;8.18;100.00;102349.69;5093638;28;20115;-75
2023/06/03 02:53:11;;;;;;;12.13;5.60;;;;;;;8.12;100.00;102354.41;5093678;28;20388;-74
2023/06/03 02:55:36;;;;;;;9.65;5.10;;;;;;;8.09;100.00;102356.38;5094004;28;20423;-74
2023/06/03 02:58:02;;;;;;;10.65;5.18;;;;;;;8.05;100.00;102345.09;5093577;28;20081;-75
2023/06/03 03:00:27;;;;;;;11.07;5.28;;;;;;;8.00;100.00;102346.28;5093349;28;20051;-75
2023/06/03 03:02:53;;;;;;;12.73;5.25;;;;;;;7.95;100.00;102349.19;5093813;28;20032;-75
2023/06/03 03:05:19;;;;;;;10.40;5.60;;;;;;;7.91;100.00;102350.28;5094225;28;20173;-75
2023/06/03 03:07:46;;;;;;;6.85;5.05;;;;;;;7.89;100.00;102350.38;5093451;28;20114;-74
2023/06/03 03:10:11;;;;;;;11.90;5.03;;;;;;;7.86;100.00;102349.72;5093663;28;20079;-74
2023/06/03 03:12:37;;;;;;;6.90;4.97;;;;;;;7.84;100.00;102349.78;5093352;28;20035;-74
2023/06/03 03:15:02;;;;;;;13.75;5.50;;;;;;;7.82;100.00;102349.00;5093825;28;20194;-75
2023/06/03 03:17:28;;;;;;;8.50;5.03;;;;;;;7.80;100.00;102353.53;5093377;28;20081;-75
2023/06/03 03:19:53;;;;;;;8.80;5.07;;;;;;;7.75;100.00;102353.78;5093001;28;20079;-75
2023/06/03 03:22:19;;;;;;;10.27;5.93;;;;;;;7.77;100.00;102356.38;5093046;28;20111;-74
2023/06/03 03:24:44;;;;;;;10.77;5.85;;;;;;;7.79;100.00;102358.94;5093726;28;20032;-75
2023/06/03 03:27:09;;;;;;;10.38;5.53;;;;;;;7.77;100.00;102356.38;5093501;28;20028;-74
2023/06/03 03:29:35;;;;;;;10.95;5.57;;;;;;;7.77;100.00;102354.56;5075755;28;20119;-74
2023/06/03 03:32:08;;;;;;;9.10;5.25;;;;;;;7.84;100.00;102351.59;5093029;28;20047;-75
2023/06/03 03:34:36;;;;;;;8.27;5.28;;;;;;;7.87;100.00;102354.91;5093503;28;20131;-74
2023/06/03 03:37:02;;;;;;;9.27;4.93;;;;;;;7.89;100.00;102355.69;5092672;28;20028;-74
2023/06/03 03:39:28;;;;;;;6.75;4.80;;;;;;;7.91;100.00;102359.13;5093638;28;20093;-74
2023/06/03 03:41:53;;;;;;;5.65;4.47;;;;;;;7.94;100.00;102364.25;5093612;28;20376;-79
2023/06/03 03:44:19;;;;;;;9.68;4.72;;;;;;;7.97;100.00;102349.09;5093190;28;20055;-74
2023/06/03 03:46:56;;;;;;;10.15;4.82;;;;;;;7.95;100.00;102362.44;5093035;28;20039;-74
2023/06/03 03:49:31;;;;;;;12.50;4.90;;;;;;;7.95;100.00;102359.78;5093485;28;20041;-74
2023/06/03 03:52:03;;;;;;;6.88;4.60;;;;;;;7.99;100.00;102363.16;5093254;28;20107;-75
2023/06/03 03:54:29;;;;;;;7.63;4.78;;;;;;;7.99;100.00;102364.00;5093447;28;20052;-74
2023/06/03 03:56:55;;;;;;;7.07;4.40;;;;;;;7.98;100.00;102364.09;5093310;28;20028;-74
2023/06/03 03:59:21;;;;;;;7.43;4.20;;;;;;;7.95;100.00;102362.44;5093613;28;20055;-74
2023/06/03 04:01:46;;;;;;;13.45;5.22;;;;;;;7.94;100.00;102361.59;5093070;28;20051;-75
2023/06/03 04:04:35;;;;;;;9.40;4.38;;;;;;;7.94;100.00;102358.06;5092546;28;20425;-74
2023/06/03 04:07:01;;;;;;;7.55;4.47;;;;;;;7.93;100.00;102361.69;5092645;28;20079;-75
2023/06/03 04:09:27;;;;;;;7.18;4.32;;;;;;;7.92;100.00;102366.13;5096777;28;20398;-74
2023/06/03 04:11:52;;;;;;;7.30;3.90;;;;;;;7.91;100.00;102364.41;5096839;28;20119;-74
2023/06/03 04:14:25;;;;;;;11.45;4.85;;;;;;;7.97;100.00;102365.84;5097220;28;20036;-74
2023/06/03 04:16:58;;;;;;;8.50;4.03;;;;;;;8.03;100.00;102369.97;5097019;28;20020;-74
2023/06/03 04:19:41;;;;;;;8.52;4.18;;;;;;;8.04;100.00;102369.03;5096701;28;20115;-75
2023/06/03 04:22:08;;;;;;;6.63;4.03;;;;;;;8.07;100.00;102375.00;5097369;28;20028;-75
2023/06/03 04:24:34;;;;;;;9.75;4.53;;;;;;;8.07;100.00;102372.34;5096580;28;20028;-75
2023/06/03 04:27:02;;;;;;;7.82;4.03;;;;;;;8.09;100.00;102370.50;5096333;28;20145;-76
2023/06/03 04:29:28;;;;;;;7.50;4.00;;;;;;;8.12;100.00;102367.69;5096607;28;20034;-75
2023/06/03 04:31:53;;;;;;;6.13;3.50;;;;;;;8.16;100.00;102371.00;5095537;28;20118;-74
2023/06/03 04:34:19;;;;;;;5.30;3.85;;;;;;;8.21;100.00;102366.31;5095837;28;20091;-75
2023/06/03 04:36:44;;;;;;;7.95;4.45;;;;;;;8.24;100.00;102371.44;5077838;28;20036;-75
2023/06/03 04:39:10;;;;;;;6.60;4.03;;;;;;;8.29;100.00;102363.22;5096130;28;20039;-75
2023/06/03 04:41:37;;;;;;;6.55;3.88;;;;;;;8.36;100.00;102361.06;5095749;28;20475;-75
2023/06/03 04:44:08;;;;;;;12.48;3.58;;;;;;;8.40;100.00;102362.59;5095547;28;20079;-75
2023/06/03 04:46:35;;;;;;;17.17;4.15;;;;;;;8.43;100.00;102368.59;5096237;28;20101;-75
2023/06/03 04:49:01;;;;;;;6.80;3.30;;;;;;;8.49;100.00;102364.75;5096007;28;20465;-75
2023/06/03 04:51:30;;;;;;;4.63;3.30;;;;;;;8.56;100.00;102359.97;5095906;28;20059;-75
2023/06/03 04:53:56;;;;;;;5.65;3.17;;;;;;;8.63;100.00;102366.63;5095855;28;20127;-75
2023/06/03 04:56:24;;;;;;;6.45;3.17;;;;;;;8.67;100.00;102362.84;5095932;28;20031;-75
2023/06/03 04:58:54;;;;;;;6.47;3.80;;;;;;;8.73;100.00;102357.19;5095551;28;20160;-75
2023/06/03 05:01:21;;;;;;;4.55;2.90;;;;;;;8.82;100.00;102359.28;5095531;28;20036;-75
2023/06/03 05:03:46;;;;;;;9.23;3.22;;;;;;;8.89;100.00;102365.09;5095829;28;20482;-75
2023/06/03 05:06:12;;;;;;;4.93;3.00;;;;;;;8.99;100.00;102363.59;5095817;28;20123;-75
2023/06/03 05:08:40;;;;;;;6.53;3.30;;;;;;;9.11;100.00;102366.47;5095681;28;20380;-75
2023/06/03 05:11:05;;;;;;;5.20;3.38;;;;;;;9.18;100.00;102370.44;5096110;28;20039;-74
2023/06/03 05:13:31;;;;;;;7.40;3.08;;;;;;;9.29;100.00;102372.47;5077702;28;20029;-73
2023/06/03 05:15:57;;;;;;;7.57;2.80;;;;;;;9.35;100.00;102369.44;5096053;28;20032;-73
2023/06/03 05:18:22;;;;;;;7.75;3.08;;;;;;;9.42;100.00;102375.22;5060883;28;20036;-74
2023/06/03 05:20:47;;;;;;;6.38;3.28;;;;;;;9.47;100.00;102376.66;5095705;28;20043;-73
2023/06/03 05:23:13;;;;;;;4.78;3.20;;;;;;;9.53;100.00;102384.25;5095180;28;20036;-74
2023/06/03 05:25:38;;;;;;;4.22;2.80;;;;;;;9.59;100.00;102383.00;5095881;28;20455;-73
2023/06/03 05:28:04;;;;;;;3.90;2.80;;;;;;;9.66;100.00;102378.19;5095391;28;20032;-73
2023/06/03 05:30:29;;;;;;;6.32;2.88;;;;;;;9.74;100.00;102386.53;5095987;28;20082;-73
2023/06/03 05:32:55;;;;;;;4.07;2.63;;;;;;;9.80;100.00;102383.47;5095071;28;20032;-73
2023/06/03 05:35:20;;;;;;;9.15;2.80;;;;;;;9.93;100.00;102390.66;5095209;28;20028;-73
2023/06/03 05:37:45;;;;;;;5.97;2.70;;;;;;;10.04;100.00;102394.34;5095254;28;20361;-74
2023/06/03 05:40:11;;;;;;;6.80;3.25;;;;;;;10.16;100.00;102395.38;5095360;28;20028;-74
2023/06/03 05:42:36;;;;;;;7.78;3.00;;;;;;;10.29;100.00;102394.63;5095462;28;20040;-74
2023/06/03 05:45:03;;;;;;;5.10;2.83;;;;;;;10.41;100.00;102392.03;5094666;28;20032;-74
2023/06/03 05:47:28;;;;;;;6.85;3.20;;;;;;;10.50;100.00;102393.22;5094891;28;20032;-74
2023/06/03 05:49:54;;;;;;;5.50;3.00;;;;;;;10.63;100.00;102397.75;5095244;28;20036;-73
2023/06/03 05:52:19;;;;;;;3.72;2.78;;;;;;;10.76;100.00;102395.97;5076811;28;20487;-73
2023/06/03 05:54:45;;;;;;;8.07;2.97;;;;;;;10.92;100.00;102390.47;5094770;28;20488;-73
2023/06/03 05:57:10;;;;;;;5.72;2.63;;;;;;;11.07;100.00;102391.25;5076338;28;20036;-78
2023/06/03 05:59:36;;;;;;;4.55;2.80;;;;;;;11.24;100.00;102395.41;5095363;28;20466;-73
2023/06/03 06:02:01;;;;;;;5.53;2.70;;;;;;;11.41;100.00;102395.13;5094716;28;20081;-74
2023/06/03 06:04:26;;;;;;;6.38;2.80;;;;;;;11.64;100.00;102395.31;5077012;28;20039;-74
2023/06/03 06:06:52;;;;;;;6.88;3.00;;;;;;;11.88;100.00;102398.03;5094636;28;20071;-73
2023/06/03 06:09:17;;;;;;;4.35;2.65;;;;;;;12.07;100.00;102396.78;5094514;28;20039;-73
2023/06/03 06:11:43;;;;;;;9.55;2.80;;;;;;;12.25;100.00;102390.09;5094509;28;20032;-73
2023/06/03 06:14:08;;;;;;;6.40;3.00;;;;;;;12.43;100.00;102397.72;5094983;28;20043;-74
2023/06/03 06:16:34;;;;;;;4.68;2.80;;;;;;;12.66;100.00;102407.53;5094414;28;20063;-74
2023/06/03 06:18:59;;;;;;;11.82;3.05;;;;;;;12.81;100.00;102397.53;5094362;28;20039;-73
2023/06/03 06:21:25;;;;;;;4.53;2.78;;;;;;;12.96;100.00;102405.38;5094322;28;20028;-73
2023/06/03 06:23:50;;;;;;;5.53;2.72;;;;;;;13.15;100.00;102404.78;5094587;28;20032;-72
2023/06/03 06:26:16;;;;;;;8.55;2.17;;;;;;;13.30;100.00;102402.75;5094391;28;20377;-74
2023/06/03 06:28:42;;;;;;;5.13;3.05;;;;;;;13.51;100.00;102400.25;5094229;28;20020;-72
2023/06/03 06:31:10;;;;;;;4.78;2.38;;;;;;;13.64;100.00;102394.81;5093534;28;20028;-74
2023/06/03 06:33:36;;;;;;;3.63;2.60;;;;;;;13.75;100.00;102395.66;5093988;28;20062;-73
2023/06/03 06:36:24;;;;;;;7.30;4.15;;;;;;;13.93;100.00;102401.34;5094058;28;20116;-72
2023/06/03 06:38:50;;;;;;;3.05;2.30;;;;;;;14.09;100.00;102392.09;5077776;28;20166;-72
2023/06/03 06:41:15;;;;;;;5.05;2.47;;;;;;;14.24;100.00;102392.66;5094296;28;20189;-79
2023/06/03 06:43:41;;;;;;;5.70;2.83;;;;;;;14.39;100.00;102401.25;5093967;28;20044;-72
2023/06/03 06:46:07;;;;;;;7.30;2.40;;;;;;;14.44;100.00;102397.22;5093584;28;20035;-72
2023/06/03 06:48:34;;;;;;;5.03;2.72;;;;;;;14.51;100.00;102389.56;5094246;28;20101;-73
2023/06/03 06:51:00;;;;;;;3.38;2.20;;;;;;;14.61;100.00;102390.53;5094161;28;20042;-73
2023/06/03 06:53:27;;;;;;;7.45;2.70;;;;;;;14.83;100.00;102393.25;5075488;28;20387;-73
2023/06/03 06:55:59;;;;;;;4.43;2.33;;;;;;;15.02;100.00;102396.06;5093080;28;20054;-73
2023/06/03 06:58:26;;;;;;;3.85;2.40;;;;;;;15.11;100.00;102394.44;5093611;28;20090;-73
2023/06/03 07:00:51;;;;;;;5.15;2.50;;;;;;;15.25;100.00;102398.59;5093630;28;20032;-72
2023/06/03 07:03:18;;;;;;;4.45;2.30;;;;;;;15.43;100.00;102394.31;5093658;28;20106;-72
2023/06/03 07:05:45;;;;;;;5.30;2.47;;;;;;;15.61;100.00;102388.34;5093499;28;20028;-73
2023/06/03 07:08:10;;;;;;;4.70;2.45;;;;;;;15.72;100.00;102387.38;5093936;28;20124;-72
2023/06/03 07:10:36;;;;;;;6.82;3.10;;;;;;;15.73;100.00;102389.94;5093643;28;20117;-73
2023/06/03 07:13:02;;;;;;;5.38;2.45;;;;;;;15.78;100.00;102392.22;5093139;28;20032;-73
2023/06/03 07:15:29;;;;;;;8.77;2.78;;;;;;;15.81;100.00;102398.19;5093580;28;20479;-73
2023/06/03 07:17:56;;;;;;;5.38;2.70;;;;;;;15.91;100.00;102397.38;5093298;28;20028;-73
2023/06/03 07:20:38;;;;;;;3.47;2.15;;;;;;;16.21;100.00;102400.00;5093171;28;20032;-73
2023/06/03 07:23:08;;;;;;;3.45;2.00;;;;;;;16.32;100.00;102399.03;5093502;28;20048;-72
2023/06/03 07:25:35;;;;;;;3.97;2.42;;;;;;;16.37;100.00;102403.97;5093156;28;20024;-72
2023/06/03 07:28:03;;;;;;;5.40;2.22;;;;;;;16.25;100.00;102400.56;5093291;28;20460;-72
2023/06/03 07:30:29;;;;;;;4.63;2.20;;;;;;;16.28;100.00;102402.13;5093147;28;20353;-73
2023/06/03 07:32:58;;;;;;;10.27;2.20;;;;;;;16.33;100.00;102389.13;5093086;28;20039;-72
2023/06/03 07:35:24;;;;;;;4.68;2.33;;;;;;;16.54;100.00;102397.06;5093083;28;20032;-73
2023/06/03 07:37:49;;;;;;;3.40;2.22;;;;;;;16.50;nan;102395.66;5093132;28;20028;-72
2023/06/03 07:40:15;;;;;;;4.50;2.20;;;;;;;16.60;100.00;102401.03;5093691;28;20504;-72
2023/06/03 07:42:47;;;;;;;6.18;2.45;;;;;;;16.79;100.00;102403.72;5094133;28;20039;-72
2023/06/03 07:45:13;;;;;;;4.07;2.20;;;;;;;17.06;100.00;102405.72;5097292;28;20039;-72
2023/06/03 07:47:39;;;;;;;5.53;2.22;;;;;;;17.25;90.73;102393.22;5096847;28;20035;-72
2023/06/03 07:50:20;;;;;;;3.35;1.90;;;;;;;17.36;82.75;102398.44;5097865;28;20024;-72
2023/06/03 07:52:46;;;;;;;13.55;2.50;;;;;;;17.41;90.51;102403.38;5097302;28;20035;-72
2023/06/03 07:55:11;;;;;;;6.65;2.00;;;;;;;17.56;96.46;102401.06;5078649;28;20044;-74
2023/06/03 07:57:44;;;;;;;3.60;2.03;;;;;;;17.78;93.96;102407.91;5097380;28;20069;-75
2023/06/03 08:00:14;;;;;;;4.15;1.70;;;;;;;17.93;93.82;102387.59;5097776;28;20024;-74
2023/06/03 08:02:40;;;;;;;5.35;1.60;;;;;;;18.10;82.25;102404.78;5097034;28;20039;-75
2023/06/03 08:05:05;;;;;;;5.95;1.85;;;;;;;18.22;72.59;102397.34;5079053;28;20036;-75
2023/06/03 08:07:32;;;;;;;2.00;1.60;;;;;;;18.43;76.64;102401.59;5097518;28;20028;-74
2023/06/03 08:09:58;;;;;;;8.85;2.03;;;;;;;18.70;77.87;102405.22;5096968;28;20060;-74
2023/06/03 08:12:29;;;;;;;8.88;1.92;;;;;;;18.82;69.88;102403.97;5096580;28;20461;-74
2023/06/03 08:14:55;;;;;;;7.75;1.98;;;;;;;18.86;65.94;102405.41;5097165;28;20432;-74
2023/06/03 08:17:35;;;;;;;5.70;1.73;;;;;;;19.05;75.44;102408.91;5096761;28;20076;-75
2023/06/03 08:20:08;;;;;;;4.88;1.55;;;;;;;19.27;62.23;102405.72;5096723;28;20582;-74
2023/06/03 08:22:40;;;;;;;5.28;1.55;;;;;;;19.45;56.24;102404.78;5096652;28;20054;-75
2023/06/03 08:25:06;;;;;;;3.58;1.50;;;;;;;19.52;58.19;102403.97;5096937;28;20020;-73
2023/06/03 08:27:32;;;;;;;2.85;1.30;;;;;;;19.57;53.89;102406.19;5096464;28;20468;-73
2023/06/03 08:29:57;;;;;;;4.82;1.30;;;;;;;19.78;52.61;102407.69;5078402;28;20032;-72
2023/06/03 08:32:23;;;;;;;3.83;1.60;;;;;;;19.69;50.93;102407.63;5096110;28;20024;-74
2023/06/03 08:34:48;;;;;;;3.45;1.42;;;;;;;19.81;55.39;102405.53;5096299;28;20059;-74
2023/06/03 08:37:14;;;;;;;3.08;1.48;;;;;;;19.95;54.25;102397.81;5096335;28;20024;-74
2023/06/03 08:39:39;;;;;;;4.82;1.58;;;;;;;20.09;51.12;102397.16;5095982;28;20035;-74
2023/06/03 08:42:12;;;;;;;8.30;1.73;;;;;;;20.33;51.45;102390.13;5096247;28;20035;-73
2023/06/03 08:44:48;;;;;;;3.50;1.50;;;;;;;20.44;49.86;102397.94;5096244;28;20076;-73
2023/06/03 08:47:26;;;;;;;3.15;1.40;;;;;;;20.68;49.42;102389.03;5096323;28;20032;-75
2023/06/03 08:49:59;;;;;;;6.20;1.52;;;;;;;20.78;45.10;102395.13;5096233;28;20032;-74
2023/06/03 08:52:30;;;;;;;9.10;1.27;;;;;;;20.96;44.97;102391.41;5096392;28;20028;-77
2023/06/03 08:55:00;;;;;;;3.25;1.25;;;;;;;21.36;45.92;102388.78;5096038;28;20055;-78
2023/06/03 08:57:33;;;;;;;2.17;1.17;;;;;;;21.69;44.91;102381.44;5096318;28;20465;-76
2023/06/03 09:00:00;;;;;;;6.40;1.60;;;;;;;22.10;40.92;102385.81;5077746;28;20413;-78
2023/06/03 09:02:27;;;;;;;8.95;1.75;;;;;;;22.34;39.64;102382.94;5095984;28;20028;-77
2023/06/03 09:04:53;;;;;;;4.45;1.42;;;;;;;22.67;38.31;102387.28;5096558;28;20085;-79
2023/06/03 09:07:20;;;;;;;3.05;1.70;;;;;;;23.04;41.18;102389.16;5095841;28;20462;-79
2023/06/03 09:09:49;;;;;;;2.22;1.20;;;;;;;23.25;39.22;102379.47;5096218;28;20082;-77
2023/06/03 09:12:15;;;;;;;5.18;1.60;;;;;;;23.54;37.19;102378.66;5095622;28;20032;-77
2023/06/03 09:14:43;;;;;;;5.63;1.58;;;;;;;24.05;35.63;102372.41;5095669;28;20028;-77
2023/06/03 09:17:09;;;;;;;2.40;1.27;;;;;;;24.49;36.82;102373.25;5077644;28;20460;-76
2023/06/03 09:19:34;;;;;;;5.55;1.25;;;;;;;24.80;37.47;102383.81;5096179;28;20032;-78
2023/06/03 09:22:01;;;;;;;8.23;2.13;;;;;;;24.67;34.34;102380.16;5095477;28;20504;-81
2023/06/03 09:24:27;;;;;;;4.25;1.30;;;;;;;24.70;32.65;102377.03;5095668;28;20078;-83
2023/06/03 09:26:52;;;;;;;4.30;2.03;;;;;;;24.91;35.37;102378.88;5095279;28;20039;-84
2023/06/03 09:29:20;;;;;;;3.03;1.40;;;;;;;24.59;36.80;102378.41;5078403;28;20035;-83
2023/06/03 09:31:47;;;;;;;3.10;1.40;;;;;;;24.32;35.16;102382.72;5095769;28;20123;-83
2023/06/03 09:34:14;;;;;;;5.22;1.70;;;;;;;24.49;35.64;102377.88;5096212;28;20044;-86
2023/06/03 09:36:44;;;;;;;3.85;1.40;;;;;;;24.29;33.76;102379.34;5095889;28;20024;-80
2023/06/03 09:39:10;;;;;;;3.35;1.45;;;;;;;24.08;35.04;102379.31;5095345;28;20376;-82
2023/06/03 09:41:36;;;;;;;2.90;1.58;;;;;;;24.21;34.63;102374.03;5095047;28;20039;-83
2023/06/03 09:44:05;;;;;;;3.05;1.40;;;;;;;24.52;35.74;102372.88;5095207;28;20492;-80
2023/06/03 09:46:33;;;;;;;7.90;1.70;;;;;;;24.82;38.53;102370.84;5094852;28;20020;-82
2023/06/03 09:49:08;;;;;;;3.80;1.35;;;;;;;24.59;34.48;102381.97;5076594;28;20063;-76
2023/06/03 09:51:42;;;;;;;4.30;1.35;;;;;;;24.39;34.02;102370.03;5094389;28;20044;-75
2023/06/03 09:54:16;;;;;;;5.13;1.55;;;;;;;24.37;33.69;102372.09;5094650;28;20044;-79
2023/06/03 09:56:44;;;;;;;4.65;1.50;;;;;;;24.05;34.85;102369.69;5094466;28;20114;-79
2023/06/03 09:59:14;;;;;;;2.20;1.40;;;;;;;24.05;36.30;102364.25;5076439;28;20059;-79
2023/06/03 10:01:47;;;;;;;3.42;1.33;;;;;;;24.18;35.90;102379.84;5095424;28;20060;-86
2023/06/03 10:04:37;;;;;;;4.90;1.60;;;;;;;24.06;33.22;102371.34;5094392;28;20127;-80
2023/06/03 10:07:10;;;;;;;1.73;1.50;;;;;;;24.08;33.56;102374.75;5093829;28;20028;-78
2023/06/03 10:09:37;;;;;;;2.67;1.42;;;;;;;24.31;34.22;102372.88;5094676;28;20051;-79
2023/06/03 10:12:02;;;;;;;3.20;1.20;;;;;;;24.47;35.29;102370.72;5093946;28;20365;-76
2023/06/03 10:14:28;;;;;;;2.95;1.42;;;;;;;24.66;36.34;102368.41;5094360;28;20040;-79
2023/06/03 10:17:08;;;;;;;6.63;1.38;;;;;;;24.85;33.89;102364.19;5094442;28;20036;-81
2023/06/03 10:19:38;;;;;;;8.27;1.67;;;;;;;25.12;32.78;102372.53;5093751;28;20476;-78
2023/06/03 10:22:05;;;;;;;5.72;1.38;;;;;;;25.22;32.78;102372.19;5093753;28;20081;-77
2023/06/03 10:24:34;;;;;;;6.10;1.65;;;;;;;25.23;33.95;102372.00;5094137;28;20028;-77
2023/06/03 10:27:00;;;;;;;3.92;1.20;;;;;;;25.20;33.70;102372.41;5094621;28;20111;-76
2023/06/03 10:29:29;;;;;;;16.80;1.63;;;;;;;25.34;34.04;102382.34;5093621;28;20030;-76
2023/06/03 10:31:56;;;;;;;10.85;1.70;;;;;;;25.49;33.83;102365.03;5094499;28;20026;-85
2023/06/03 10:34:22;;;;;;;4.32;3.03;;;;;;;25.89;34.21;102365.19;5076022;28;20384;-81
2023/06/03 10:36:56;;;;;;;5.18;1.42;;;;;;;26.10;33.10;102366.13;5093804;28;20028;-79
2023/06/03 10:39:24;;;;;;;5.47;1.88;;;;;;;25.98;31.83;102366.69;5094047;28;20032;-78
2023/06/03 10:41:52;;;;;;;8.85;1.45;;;;;;;26.28;30.55;102374.56;5093747;28;20028;-86
2023/06/03 10:44:19;;;;;;;3.58;1.27;;;;;;;25.81;31.17;102379.84;5094812;28;20034;-91
2023/06/03 10:47:06;;;;;;;15.40;1.88;;;;;;;25.64;29.73;102379.34;5094523;28;20075;-84
2023/06/03 10:49:36;;;;;;;9.30;1.50;;;;;;;25.98;29.10;102380.31;5094537;28;20028;-84
2023/06/03 10:52:18;;;;;;;8.32;1.50;;;;;;;26.32;29.81;102378.56;5094411;28;20028;-85
2023/06/03 10:55:02;;;;;;;50.08;2.92;;;;;;;27.11;32.14;102370.59;5094081;28;20055;-83
2023/06/03 10:57:38;;;;;;;4.22;1.38;;;;;;;27.57;28.45;102374.28;5093613;28;20554;-83
2023/06/03 11:00:04;;;;;;;5.90;1.52;;;;;;;27.74;28.42;102374.66;5093723;28;20071;-81
2023/06/03 11:03:02;;;;;;;3.40;1.80;;;;;;;27.32;27.68;102374.97;5093713;28;20440;-88
2023/06/03 11:05:27;;;;;;;9.05;1.60;;;;;;;28.02;28.55;102373.47;5094171;28;20051;-87
2023/06/03 11:07:54;;;;;;;10.55;1.90;;;;;;;28.34;28.70;102366.09;5075951;28;20452;-89
2023/06/03 11:10:42;;;;;;;7.70;1.70;;;;;;;28.60;28.87;102375.19;5093556;28;20444;-84
2023/06/03 11:13:11;;;;;;;5.47;1.55;;;;;;;28.62;28.59;102376.66;5076029;28;20043;-86
2023/06/03 11:16:01;;;;;;;5.32;1.52;;;;;;;28.87;28.90;102366.75;5093901;28;20109;-90
2023/06/03 11:18:28;;;;;;;11.27;1.70;;;;;;;29.51;29.91;102367.34;5094136;28;20038;-87
2023/06/03 11:20:53;;;;;;;5.32;1.35;;;;;;;29.91;26.23;102366.88;5094027;28;20040;-86
2023/06/03 11:23:41;;;;;;;7.93;1.85;;;;;;;29.81;27.87;102366.53;5093653;28;20384;-81
2023/06/03 11:26:35;;;;;;;2.45;1.63;;;;;;;29.58;25.94;102361.81;5094170;28;20054;-88